Terminal Aerodrome Forecast
Issued by NWS Amarillo, TX

Home | Current Version | Previous Version | Text Only | Print | Product List | Glossary On
Versions: 1 2 3 4 5 6 7 8 9 10 11 12
724
FTUS44 KAMA 081726
TAFDHT
TAF
KDHT 081726Z 0818/0918 32011G19KT P6SM FEW200
     FM082300 28008KT P6SM SCT200=

USA.gov is the U.S. government's official web portal to all federal, state and local government web resources and services.